Time;durP1;ratioP1;P1;durP2;ratioP2;P2;SDS_P1;SDS_P2;PMS_P1;PMS_P2;Temp;Humidity;BMP_temperature;BMP_pressure;BME280_temperature;BME280_humidity;BME280_pressure;Samples;Min_cycle;Max_cycle;Signal;HPM_P1;HPM_P2
2022/01/16 00:01:17;;;;;;;29.50;14.18;;;7.00;99.90;;;;;;4892420;28;113615;-73
2022/01/16 00:06:28;;;;;;;23.17;13.40;;;7.00;99.90;;;;;;4912555;28;112840;-73
2022/01/16 00:08:53;;;;;;;25.90;14.40;;;7.00;99.90;;;;;;4910319;28;112475;-72
2022/01/16 00:11:19;;;;;;;26.80;14.60;;;7.00;99.90;;;;;;4926763;28;113055;-72
2022/01/16 00:13:45;;;;;;;22.60;12.85;;;6.90;99.90;;;;;;4926144;28;114409;-72
2022/01/16 00:16:13;;;;;;;26.38;12.25;;;6.90;99.90;;;;;;4909033;28;112686;-70
2022/01/16 00:19:03;;;;;;;24.48;12.43;;;6.90;99.90;;;;;;4926290;28;112648;-71
2022/01/16 00:21:32;;;;;;;28.05;14.15;;;6.90;99.90;;;;;;4925304;28;112859;-73
2022/01/16 00:23:58;;;;;;;26.30;13.47;;;6.90;99.90;;;;;;4924770;28;112909;-73
2022/01/16 00:26:24;;;;;;;26.55;13.05;;;6.90;99.90;;;;;;4926807;28;112627;-72
2022/01/16 00:28:51;;;;;;;28.10;14.23;;;6.90;99.90;;;;;;4945316;28;112354;-72
2022/01/16 00:31:19;;;;;;;21.90;13.23;;;6.90;99.90;;;;;;4945156;28;113210;-71
2022/01/16 00:33:45;;;;;;;25.88;13.45;;;6.90;99.90;;;;;;4926856;28;115277;-72
2022/01/16 00:36:14;;;;;;;25.02;13.65;;;6.90;99.90;;;;;;4945417;28;112740;-73
2022/01/16 00:38:44;;;;;;;23.25;13.48;;;6.90;99.90;;;;;;4927509;28;112440;-72
2022/01/16 00:41:11;;;;;;;24.42;12.27;;;6.80;99.90;;;;;;4945156;28;113001;-71
2022/01/16 00:43:37;;;;;;;23.27;12.93;;;6.80;99.90;;;;;;4945102;28;113553;-74
2022/01/16 00:46:02;;;;;;;22.92;12.25;;;6.80;99.90;;;;;;4945397;28;113172;-72
2022/01/16 00:48:28;;;;;;;23.23;11.68;;;6.80;99.90;;;;;;4944386;28;112671;-73
2022/01/16 00:50:54;;;;;;;25.45;12.43;;;6.80;99.90;;;;;;4928603;28;116135;-73
2022/01/16 00:53:20;;;;;;;28.00;12.02;;;6.80;99.90;;;;;;4949608;28;112775;-71
2022/01/16 00:55:46;;;;;;;19.40;11.40;;;6.80;99.90;;;;;;4953140;28;112453;-72
2022/01/16 00:58:12;;;;;;;22.70;11.88;;;6.80;99.90;;;;;;4956098;28;112189;-72
2022/01/16 01:00:38;;;;;;;24.05;12.75;;;6.80;99.90;;;;;;4956110;28;112909;-67
2022/01/16 01:03:06;;;;;;;23.27;12.95;;;6.80;99.90;;;;;;4937207;28;113401;-72
2022/01/16 01:05:33;;;;;;;27.13;12.00;;;6.80;99.90;;;;;;4933109;28;112746;-74
2022/01/16 01:07:59;;;;;;;22.73;12.38;;;6.80;99.90;;;;;;4948818;28;112631;-73
2022/01/16 01:10:31;;;;;;;20.02;12.00;;;6.70;99.90;;;;;;4945190;28;114698;-72
2022/01/16 01:13:08;;;;;;;30.35;12.55;;;6.70;99.90;;;;;;4946134;28;112909;-72
2022/01/16 01:15:44;;;;;;;24.58;12.68;;;6.70;99.90;;;;;;4927858;28;112556;-72
2022/01/16 01:18:13;;;;;;;24.05;12.70;;;6.70;99.90;;;;;;4944815;28;112411;-74
2022/01/16 01:20:41;;;;;;;22.98;12.43;;;6.60;99.90;;;;;;4945284;28;113027;-72
2022/01/16 01:23:08;;;;;;;21.75;11.95;;;6.60;99.90;;;;;;4926938;28;113702;-73
2022/01/16 01:25:34;;;;;;;23.98;12.45;;;6.60;99.90;;;;;;4943753;28;112715;-72
2022/01/16 01:28:00;;;;;;;24.52;12.85;;;6.60;99.90;;;;;;4944497;28;112632;-73
2022/01/16 01:30:25;;;;;;;22.67;11.27;;;6.60;99.90;;;;;;4941802;28;114458;-72
2022/01/16 01:32:55;;;;;;;23.42;13.07;;;6.60;99.90;;;;;;4943182;28;112877;-71
2022/01/16 01:35:22;;;;;;;19.65;11.18;;;6.60;99.90;;;;;;4911446;28;112415;-72
2022/01/16 01:37:48;;;;;;;24.50;11.45;;;6.60;99.90;;;;;;4943732;28;112751;-72
2022/01/16 01:40:26;;;;;;;24.45;12.48;;;6.60;99.90;;;;;;4942860;28;114708;-72
2022/01/16 01:51:15;;;;;;;18.83;10.27;;;6.60;99.90;;;;;;4944600;28;112686;-68
2022/01/16 01:53:42;;;;;;;25.25;10.98;;;6.60;99.90;;;;;;4942321;28;113400;-73
2022/01/16 01:56:12;;;;;;;25.90;10.98;;;6.60;99.90;;;;;;4944242;28;112536;-70
2022/01/16 01:58:38;;;;;;;23.77;10.68;;;6.60;99.90;;;;;;4946558;28;112544;-68
2022/01/16 02:01:05;;;;;;;22.90;10.88;;;6.60;99.90;;;;;;4947758;28;113043;-73
2022/01/16 02:06:14;;;;;;;21.27;10.48;;;6.60;99.90;;;;;;4950420;28;112582;-73
2022/01/16 02:08:42;;;;;;;19.00;10.30;;;6.60;99.90;;;;;;4950682;28;112520;-73
2022/01/16 02:11:13;;;;;;;20.00;9.63;;;6.60;99.90;;;;;;4932005;28;116375;-71
2022/01/16 02:30:56;;;;;;;18.42;9.98;;;6.50;99.90;;;;;;4937002;28;112675;-73
2022/01/16 02:35:42;;;;;;;16.60;9.32;;;6.50;99.90;;;;;;4932797;28;112624;-70
2022/01/16 02:38:12;;;;;;;17.85;8.80;;;6.50;99.90;;;;;;4951313;28;112390;-67
2022/01/16 02:40:42;;;;;;;19.15;9.10;;;6.50;99.90;;;;;;4951159;28;113458;-74
2022/01/16 02:43:07;;;;;;;;;;;6.50;99.90;;;;;;4982421;22;113600;-65
2022/01/16 02:45:37;;;;;;;14.88;8.23;;;6.50;99.90;;;;;;4950869;28;112673;-65
2022/01/16 02:48:06;;;;;;;17.63;7.97;;;6.50;99.90;;;;;;4941406;28;112507;-64
2022/01/16 02:50:36;;;;;;;15.95;8.55;;;6.50;99.90;;;;;;4968783;22;112991;-66
2022/01/16 02:53:08;;;;;;;13.75;8.43;;;6.50;99.90;;;;;;4971896;28;113476;-73
2022/01/16 02:55:34;;;;;;;13.07;7.90;;;6.50;99.90;;;;;;4989513;28;113895;-73
2022/01/16 02:58:01;;;;;;;16.42;8.38;;;6.50;99.90;;;;;;4988660;28;112492;-73
2022/01/16 03:00:27;;;;;;;13.63;8.80;;;6.50;99.90;;;;;;4989756;28;112229;-72
2022/01/16 03:02:53;;;;;;;14.90;8.32;;;6.50;99.90;;;;;;4989187;28;114052;-70
2022/01/16 03:05:19;;;;;;;17.63;8.88;;;6.50;99.90;;;;;;4988742;28;113271;-73
2022/01/16 03:07:45;;;;;;;16.27;8.55;;;6.50;99.90;;;;;;4989979;28;112267;-72
2022/01/16 03:12:51;;;;;;;16.25;8.90;;;6.50;99.90;;;;;;4986191;28;112855;-68
2022/01/16 03:15:18;;;;;;;14.65;8.40;;;6.50;99.90;;;;;;4985958;28;113102;-75
2022/01/16 03:23:02;;;;;;;15.93;8.13;;;6.50;99.90;;;;;;4971015;28;112584;-71
2022/01/16 03:25:28;;;;;;;16.75;8.35;;;6.50;99.90;;;;;;4986182;28;113861;-72
2022/01/16 03:27:54;;;;;;;15.50;8.20;;;6.50;99.90;;;;;;4988080;28;112637;-72
2022/01/16 03:30:20;;;;;;;14.35;7.65;;;6.40;99.90;;;;;;4989842;28;112608;-70
2022/01/16 03:32:46;;;;;;;14.98;8.18;;;6.40;99.90;;;;;;4971960;28;115168;-72
2022/01/16 03:35:12;;;;;;;14.45;7.72;;;6.40;99.90;;;;;;4989201;28;112554;-71
2022/01/16 03:37:37;;;;;;;12.93;7.45;;;6.40;99.90;;;;;;4990388;28;112446;-72
2022/01/16 03:40:07;;;;;;;16.98;7.55;;;6.40;99.90;;;;;;4988433;28;112626;-72
2022/01/16 03:42:35;;;;;;;13.25;8.25;;;6.40;99.90;;;;;;4970582;28;114924;-71
2022/01/16 03:45:01;;;;;;;11.60;7.70;;;6.40;99.90;;;;;;4987041;28;112817;-72
2022/01/16 03:47:27;;;;;;;13.23;7.70;;;6.40;99.90;;;;;;4968632;28;112469;-71
2022/01/16 03:49:53;;;;;;;13.77;7.20;;;6.40;99.90;;;;;;4985275;28;112424;-68
2022/01/16 03:52:19;;;;;;;14.85;7.40;;;6.40;99.90;;;;;;4985538;28;114101;-72
2022/01/16 03:54:44;;;;;;;15.05;7.55;;;6.40;99.90;;;;;;4984829;28;112927;-72
2022/01/16 03:57:10;;;;;;;17.63;8.38;;;6.40;99.90;;;;;;4986065;28;112768;-72
2022/01/16 03:59:36;;;;;;;15.65;7.78;;;6.30;99.90;;;;;;4985824;28;112589;-71
2022/01/16 04:02:04;;;;;;;15.57;7.85;;;6.40;99.90;;;;;;4985039;28;113825;-69
2022/01/16 04:04:30;;;;;;;12.40;7.45;;;6.30;99.90;;;;;;4984122;28;113188;-71
2022/01/16 04:06:56;;;;;;;17.58;8.35;;;6.30;99.90;;;;;;4985025;28;112832;-67
2022/01/16 04:09:22;;;;;;;12.95;7.25;;;6.30;99.90;;;;;;4985285;28;113090;-72
2022/01/16 04:11:53;;;;;;;16.73;8.30;;;6.30;99.90;;;;;;4984578;28;112845;-72
2022/01/16 04:17:09;;;;;;;18.75;8.40;;;6.30;99.90;;;;;;4947222;28;112581;-69
2022/01/16 04:19:35;;;;;;;15.30;8.18;;;6.30;99.90;;;;;;4984995;28;113442;-68
2022/01/16 04:22:01;;;;;;;12.90;7.70;;;6.30;99.90;;;;;;4966376;28;113129;-73
2022/01/16 04:24:27;;;;;;;17.80;7.65;;;6.20;99.90;;;;;;4985031;28;112431;-72
2022/01/16 04:26:53;;;;;;;14.75;7.97;;;6.30;99.90;;;;;;4985410;28;112692;-72
2022/01/16 04:29:19;;;;;;;16.60;7.82;;;6.30;99.90;;;;;;4984814;28;112839;-72
2022/01/16 04:31:44;;;;;;;19.45;7.80;;;6.20;99.90;;;;;;4984500;28;112922;-72
2022/01/16 04:34:10;;;;;;;16.83;7.57;;;6.20;99.90;;;;;;4965648;28;114935;-72
2022/01/16 04:36:37;;;;;;;15.68;7.72;;;6.30;99.90;;;;;;4984485;28;112511;-72
2022/01/16 04:39:09;;;;;;;16.55;7.97;;;6.20;99.90;;;;;;4984761;28;112396;-71
2022/01/16 04:44:19;;;;;;;16.75;6.55;;;6.20;99.90;;;;;;4984706;28;112832;-71
2022/01/16 04:46:46;;;;;;;13.07;6.28;;;6.20;99.90;;;;;;4966484;28;112771;-71
2022/01/16 04:49:12;;;;;;;20.13;7.38;;;6.20;99.90;;;;;;4985019;28;112766;-71
2022/01/16 04:51:38;;;;;;;13.63;6.82;;;6.20;99.90;;;;;;4983689;28;113463;-72
2022/01/16 04:54:04;;;;;;;13.82;7.38;;;6.20;99.90;;;;;;4966409;28;115656;-72
2022/01/16 04:56:30;;;;;;;12.45;6.43;;;6.20;99.90;;;;;;4985045;28;112739;-72
2022/01/16 04:58:56;;;;;;;17.92;7.30;;;6.20;99.90;;;;;;4984880;28;112525;-73
2022/01/16 05:01:22;;;;;;;20.13;6.35;;;6.20;99.90;;;;;;4966522;28;116711;-73
2022/01/16 05:03:48;;;;;;;12.82;6.35;;;6.10;99.90;;;;;;4983565;28;112836;-72
2022/01/16 05:06:14;;;;;;;10.65;6.10;;;6.10;99.90;;;;;;4966835;28;112652;-70
2022/01/16 05:08:40;;;;;;;15.43;6.45;;;6.10;99.90;;;;;;4966678;28;112563;-73
2022/01/16 05:11:08;;;;;;;15.70;6.93;;;6.10;99.90;;;;;;4984197;28;114281;-72
2022/01/16 05:18:49;;;;;;;17.75;6.63;;;6.10;99.90;;;;;;4969547;28;112537;-74
2022/01/16 05:21:15;;;;;;;15.65;6.20;;;6.10;99.90;;;;;;4984115;28;113006;-72
2022/01/16 05:23:44;;;;;;;9.10;5.88;;;6.10;99.90;;;;;;4983163;28;112576;-73
2022/01/16 05:26:11;;;;;;;13.30;5.90;;;6.10;99.90;;;;;;4967145;28;112732;-72
2022/01/16 05:28:37;;;;;;;11.95;5.93;;;6.10;99.90;;;;;;4983735;28;113865;-73
2022/01/16 05:31:04;;;;;;;13.18;6.32;;;6.10;99.90;;;;;;4983353;28;114079;-72
2022/01/16 05:33:30;;;;;;;11.70;6.03;;;6.10;99.90;;;;;;4965007;28;113553;-73
2022/01/16 05:35:56;;;;;;;12.60;6.70;;;6.10;99.90;;;;;;4984576;28;112368;-71
2022/01/16 05:38:22;;;;;;;10.10;6.30;;;6.10;99.90;;;;;;4983846;28;112644;-72
2022/01/16 05:40:48;;;;;;;11.55;6.00;;;6.10;99.90;;;;;;4983364;28;113075;-72
2022/01/16 05:43:14;;;;;;;13.63;5.72;;;6.10;99.90;;;;;;4983161;28;113996;-70
2022/01/16 05:45:40;;;;;;;10.23;6.05;;;6.10;99.90;;;;;;4949707;28;112458;-73
2022/01/16 05:48:06;;;;;;;10.43;5.50;;;6.10;99.90;;;;;;4984830;28;112581;-72
2022/01/16 05:50:33;;;;;;;13.15;5.40;;;6.10;99.90;;;;;;4982969;28;114061;-71
2022/01/16 05:53:00;;;;;;;13.07;6.43;;;6.10;99.90;;;;;;4983086;28;113544;-69
2022/01/16 05:55:31;;;;;;;11.45;5.45;;;6.00;99.90;;;;;;4987912;28;112504;-65
2022/01/16 05:57:57;;;;;;;13.95;6.00;;;6.10;99.90;;;;;;4989840;28;112529;-71
2022/01/16 06:00:24;;;;;;;9.38;5.38;;;6.00;99.90;;;;;;4995560;28;114382;-68
2022/01/16 06:02:49;;;;;;;9.85;5.53;;;6.00;99.90;;;;;;5015890;28;112366;-73
2022/01/16 06:05:16;;;;;;;12.45;6.28;;;6.00;99.90;;;;;;4997229;28;112509;-72
2022/01/16 06:07:51;;;;;;;10.85;5.88;;;6.00;99.90;;;;;;5005451;28;112402;-72
2022/01/16 06:10:18;;;;;;;12.18;5.40;;;6.00;99.90;;;;;;5004880;28;113653;-71
2022/01/16 06:12:44;;;;;;;13.73;5.82;;;6.00;99.90;;;;;;5003543;28;112712;-67
2022/01/16 06:15:10;;;;;;;11.38;5.60;;;6.00;99.90;;;;;;4986209;28;112593;-72
2022/01/16 06:17:36;;;;;;;10.50;5.95;;;5.90;99.90;;;;;;5003547;28;112431;-72
2022/01/16 06:20:03;;;;;;;10.85;5.57;;;5.90;99.90;;;;;;5003027;28;113444;-73
2022/01/16 06:22:28;;;;;;;12.13;6.55;;;5.90;99.90;;;;;;5003106;28;114681;-72
2022/01/16 06:24:54;;;;;;;8.32;5.50;;;5.90;99.90;;;;;;5002453;28;112890;-72
2022/01/16 06:27:20;;;;;;;14.30;6.57;;;5.90;99.90;;;;;;5007699;22;115888;-59
2022/01/16 06:29:46;;;;;;;12.05;6.43;;;5.90;99.90;;;;;;4982927;28;113074;-65
2022/01/16 06:32:12;;;;;;;16.08;8.82;;;5.90;99.90;;;;;;4982042;28;113305;-65
2022/01/16 06:34:37;;;;;;;15.40;5.85;;;5.90;99.90;;;;;;4967873;28;112339;-63
2022/01/16 06:37:03;;;;;;;12.90;7.20;;;5.90;99.90;;;;;;4964095;28;112466;-64
2022/01/16 06:39:29;;;;;;;19.80;11.02;;;5.90;99.90;;;;;;4962348;28;114254;-64
2022/01/16 06:41:58;;;;;;;16.52;9.02;;;5.90;99.90;;;;;;4943970;28;112903;-66
2022/01/16 06:44:24;;;;;;;18.35;8.90;;;5.90;99.90;;;;;;4962767;28;112392;-66
2022/01/16 06:46:50;;;;;;;24.85;10.50;;;5.90;99.90;;;;;;4981409;28;113517;-61
2022/01/16 06:49:16;;;;;;;21.92;13.50;;;5.90;99.90;;;;;;4985676;28;113361;-65
2022/01/16 06:51:42;;;;;;;7.45;5.22;;;5.90;99.90;;;;;;4968259;28;113728;-64
2022/01/16 06:54:08;;;;;;;18.23;8.13;;;5.90;99.90;;;;;;4986563;28;112980;-65
2022/01/16 06:56:33;;;;;;;13.95;6.65;;;5.80;99.90;;;;;;4968795;28;112725;-65
2022/01/16 06:58:59;;;;;;;10.38;6.45;;;5.80;99.90;;;;;;4986147;28;113729;-64
2022/01/16 07:01:26;;;;;;;11.05;6.25;;;5.90;99.90;;;;;;4951456;28;115631;-66
2022/01/16 07:03:54;;;;;;;11.18;6.45;;;5.80;99.90;;;;;;4967773;28;113165;-65
2022/01/16 07:06:21;;;;;;;12.93;6.18;;;5.80;99.90;;;;;;4984766;28;113697;-66
2022/01/16 07:08:46;;;;;;;10.07;6.47;;;5.80;99.90;;;;;;4993212;28;113025;-67
2022/01/16 07:11:13;;;;;;;8.35;5.30;;;5.80;99.90;;;;;;5004957;28;112561;-67
2022/01/16 07:13:39;;;;;;;13.00;6.95;;;5.80;99.90;;;;;;5006236;28;112338;-66
2022/01/16 07:16:05;;;;;;;9.95;5.72;;;5.80;99.90;;;;;;5006680;28;112801;-62
2022/01/16 07:18:31;;;;;;;9.45;5.47;;;5.80;99.90;;;;;;5005533;28;115102;-66
2022/01/16 07:20:57;;;;;;;16.13;6.28;;;5.80;99.90;;;;;;4987721;28;112957;-65
2022/01/16 07:23:23;;;;;;;8.55;5.20;;;5.80;99.90;;;;;;5006384;28;112245;-67
2022/01/16 07:25:49;;;;;;;30.48;14.23;;;5.80;99.90;;;;;;5006607;28;112801;-66
2022/01/16 07:28:17;;;;;;;19.05;9.35;;;5.80;99.90;;;;;;5003553;28;113255;-66
2022/01/16 07:30:43;;;;;;;14.13;6.68;;;5.80;99.90;;;;;;4988360;22;113479;-66
2022/01/16 07:33:09;;;;;;;12.63;7.03;;;5.80;99.90;;;;;;4956289;28;112763;-73
2022/01/16 07:35:36;;;;;;;12.20;6.05;;;5.80;99.90;;;;;;4986502;28;112632;-72
2022/01/16 07:38:03;;;;;;;7.78;5.45;;;5.80;99.90;;;;;;4986242;28;113206;-70
2022/01/16 07:40:29;;;;;;;11.35;5.00;;;5.80;99.90;;;;;;4986248;28;112510;-71
2022/01/16 07:42:55;;;;;;;7.95;4.85;;;5.80;99.90;;;;;;4988400;28;112622;-73
2022/01/16 07:45:22;;;;;;;21.30;11.68;;;5.80;99.90;;;;;;4987891;28;112490;-73
2022/01/16 07:47:48;;;;;;;24.08;11.57;;;5.80;99.90;;;;;;4988215;28;114185;-70
2022/01/16 07:50:15;;;;;;;11.73;6.07;;;5.80;99.90;;;;;;4986741;28;112948;-73
2022/01/16 07:52:41;;;;;;;9.43;5.88;;;5.80;99.90;;;;;;4985517;28;112674;-70
2022/01/16 07:55:08;;;;;;;9.77;5.80;;;5.80;99.90;;;;;;4985503;28;112440;-70
2022/01/16 07:57:35;;;;;;;10.90;5.75;;;5.80;99.90;;;;;;4984397;28;113527;-70
2022/01/16 08:00:01;;;;;;;10.95;5.60;;;5.80;99.90;;;;;;4985004;28;113508;-71
2022/01/16 08:02:27;;;;;;;10.48;5.07;;;5.80;99.90;;;;;;4985252;28;112608;-71
2022/01/16 08:04:52;;;;;;;8.70;5.05;;;5.80;99.90;;;;;;4985974;28;112757;-74
2022/01/16 08:07:18;;;;;;;27.63;5.35;;;5.80;99.90;;;;;;4983583;28;113336;-71
2022/01/16 08:09:44;;;;;;;6.95;4.57;;;5.80;99.90;;;;;;4979095;22;114354;-58
2022/01/16 08:12:16;;;;;;;8.50;4.60;;;5.80;99.90;;;;;;4964873;28;112685;-55
2022/01/16 08:14:42;;;;;;;8.82;4.68;;;5.90;99.90;;;;;;4948404;28;112469;-58
2022/01/16 08:17:07;;;;;;;8.52;5.00;;;5.90;99.90;;;;;;4964276;28;113706;-59
2022/01/16 08:19:33;;;;;;;9.43;4.53;;;5.90;99.90;;;;;;4969194;22;112563;-67
2022/01/16 08:21:59;;;;;;;14.68;5.13;;;5.90;99.90;;;;;;4967133;28;112568;-66
2022/01/16 08:24:25;;;;;;;10.98;4.78;;;5.90;99.90;;;;;;4985608;28;112250;-65
2022/01/16 08:26:51;;;;;;;10.15;5.20;;;6.00;99.90;;;;;;4985014;28;113716;-64
2022/01/16 08:29:18;;;;;;;11.23;5.13;;;5.90;99.90;;;;;;4965414;28;113166;-66
2022/01/16 08:31:43;;;;;;;6.03;4.43;;;6.00;99.90;;;;;;4979369;28;113438;-71
2022/01/16 08:34:09;;;;;;;10.25;4.95;;;6.00;99.90;;;;;;4964939;28;112509;-71
2022/01/16 08:36:35;;;;;;;10.45;6.05;;;6.10;99.90;;;;;;4967103;28;114335;-67
2022/01/16 08:39:02;;;;;;;10.82;4.97;;;6.10;99.90;;;;;;4984138;28;113097;-71
2022/01/16 08:41:29;;;;;;;8.50;4.60;;;6.10;99.90;;;;;;4967338;28;112682;-70
2022/01/16 08:43:54;;;;;;;11.77;5.25;;;6.20;99.90;;;;;;4985151;28;112665;-72
2022/01/16 08:46:23;;;;;;;9.05;5.43;;;6.20;99.90;;;;;;4984493;28;113418;-71
2022/01/16 08:48:50;;;;;;;9.52;5.38;;;6.20;99.90;;;;;;4963223;28;113441;-71
2022/01/16 08:51:18;;;;;;;10.65;6.28;;;6.30;99.90;;;;;;4965551;28;112543;-71
2022/01/16 08:53:45;;;;;;;11.20;6.63;;;6.40;99.90;;;;;;4965668;28;112727;-66
2022/01/16 08:56:13;;;;;;;8.40;5.28;;;6.40;99.90;;;;;;4976101;28;114815;-70
2022/01/16 08:58:40;;;;;;;11.07;5.40;;;6.50;99.90;;;;;;4953614;28;113559;-73
2022/01/16 09:01:06;;;;;;;10.27;4.97;;;6.60;99.90;;;;;;4951524;28;112536;-75
2022/01/16 09:03:33;;;;;;;14.82;5.60;;;6.70;99.90;;;;;;4982749;28;114201;-74
2022/01/16 09:05:58;;;;;;;10.15;4.88;;;6.80;99.90;;;;;;4983540;28;113531;-73
2022/01/16 09:08:24;;;;;;;11.25;5.18;;;6.80;99.90;;;;;;4982302;28;112494;-75
2022/01/16 09:10:50;;;;;;;19.88;6.53;;;7.00;99.90;;;;;;4984919;28;112739;-76
2022/01/16 09:13:16;;;;;;;14.93;6.63;;;7.10;99.90;;;;;;4982700;28;112599;-76
2022/01/16 09:15:49;;;;;;;11.63;5.43;;;7.20;99.90;;;;;;4970896;28;113969;-77
2022/01/16 09:18:16;;;;;;;10.73;5.22;;;7.40;99.90;;;;;;4977206;28;112907;-76
2022/01/16 09:20:43;;;;;;;13.80;6.00;;;7.50;99.90;;;;;;4982524;28;112875;-75
2022/01/16 09:23:09;;;;;;;12.50;6.07;;;7.60;99.90;;;;;;4985631;28;112380;-73
2022/01/16 09:25:35;;;;;;;12.60;6.25;;;7.70;99.90;;;;;;4986138;28;113556;-73
2022/01/16 09:28:02;;;;;;;10.98;6.20;;;7.90;99.90;;;;;;4962168;28;112851;-73
2022/01/16 09:30:29;;;;;;;11.48;5.97;;;8.00;99.90;;;;;;4979225;28;112542;-75
2022/01/16 09:32:55;;;;;;;12.02;6.00;;;8.10;99.90;;;;;;4968748;28;112562;-74
2022/01/16 09:35:21;;;;;;;13.85;5.78;;;8.30;99.90;;;;;;4984509;28;114147;-73
2022/01/16 09:37:47;;;;;;;9.63;6.05;;;8.40;99.90;;;;;;4967005;28;112655;-71
2022/01/16 09:40:15;;;;;;;9.02;4.28;;;8.60;99.90;;;;;;4984397;28;112404;-77
2022/01/16 09:42:46;;;;;;;11.80;5.15;;;8.70;99.90;;;;;;4952292;28;112619;-79
2022/01/16 09:45:15;;;;;;;10.88;5.03;;;8.80;99.90;;;;;;4981667;28;114323;-74
2022/01/16 09:47:43;;;;;;;7.68;4.55;;;8.90;99.90;;;;;;4973648;28;112641;-71
2022/01/16 09:50:11;;;;;;;10.93;5.38;;;9.00;99.90;;;;;;4993537;22;113625;-65
2022/01/16 09:52:39;;;;;;;9.75;5.40;;;9.10;99.90;;;;;;4997560;28;112692;-68
2022/01/16 09:55:06;;;;;;;11.98;4.90;;;9.20;99.90;;;;;;4988475;28;114103;-61
2022/01/16 09:57:33;;;;;;;12.68;6.45;;;9.40;99.90;;;;;;5001282;28;113938;-63
2022/01/16 09:59:59;;;;;;;8.45;4.35;;;9.50;99.90;;;;;;5003476;28;112732;-64
2022/01/16 10:02:25;;;;;;;9.15;5.18;;;9.70;99.90;;;;;;5003674;28;112425;-63
2022/01/16 10:04:53;;;;;;;7.90;4.47;;;9.80;99.90;;;;;;4984855;28;113999;-63
2022/01/16 10:07:20;;;;;;;9.13;4.63;;;9.80;99.90;;;;;;4959651;28;115435;-64
2022/01/16 10:10:10;;;;;;;13.43;4.93;;;9.90;99.90;;;;;;4964367;28;112667;-63
2022/01/16 10:12:41;;;;;;;8.23;4.22;;;10.00;99.90;;;;;;4983981;28;112969;-63
2022/01/16 10:15:25;;;;;;;10.45;5.63;;;10.10;99.90;;;;;;4965862;28;114154;-64
2022/01/16 10:17:53;;;;;;;13.38;6.15;;;10.20;99.90;;;;;;4982519;28;112659;-64
2022/01/16 10:20:19;;;;;;;10.63;4.78;;;10.40;99.90;;;;;;4986329;28;112747;-63
2022/01/16 10:22:51;;;;;;;9.25;4.57;;;10.50;99.90;;;;;;4986592;28;112595;-63
2022/01/16 10:25:38;;;;;;;10.13;4.47;;;10.60;99.90;;;;;;4985126;28;114248;-61
2022/01/16 10:28:15;;;;;;;31.13;13.70;;;10.70;99.90;;;;;;4967902;28;113758;-64
2022/01/16 10:30:44;;;;;;;11.05;5.57;;;10.90;99.90;;;;;;4986652;28;112598;-65
2022/01/16 10:33:12;;;;;;;8.83;5.30;;;11.00;99.90;;;;;;4986933;28;112828;-65
2022/01/16 10:35:41;;;;;;;7.80;4.03;;;11.10;99.90;;;;;;4986233;28;113476;-63
2022/01/16 10:38:23;;;;;;;8.45;3.78;;;11.20;99.90;;;;;;4968176;28;114405;-65
2022/01/16 10:40:52;;;;;;;11.10;4.20;;;11.30;99.90;;;;;;4987214;28;113153;-65
2022/01/16 10:43:37;;;;;;;13.48;7.88;;;11.40;99.90;;;;;;4985987;28;112450;-65
2022/01/16 10:46:03;;;;;;;9.02;4.30;;;11.40;99.90;;;;;;4966038;28;114235;-64
2022/01/16 10:48:29;;;;;;;7.07;4.63;;;11.50;99.90;;;;;;4966221;28;114115;-62
2022/01/16 10:50:55;;;;;;;9.35;5.35;;;11.60;99.90;;;;;;4965868;28;112991;-64
2022/01/16 10:53:26;;;;;;;11.35;5.57;;;11.60;99.50;;;;;;4948651;28;112894;-63
2022/01/16 10:55:58;;;;;;;8.43;4.38;;;11.60;99.40;;;;;;4965663;28;113977;-64
2022/01/16 10:58:28;;;;;;;12.25;5.57;;;11.60;99.30;;;;;;4964797;28;113032;-64
2022/01/16 11:01:05;;;;;;;17.73;7.50;;;11.60;99.40;;;;;;4965923;28;112702;-64
2022/01/16 11:03:44;;;;;;;18.02;8.77;;;11.80;99.60;;;;;;4984923;28;112458;-64
2022/01/16 11:06:10;;;;;;;10.40;5.90;;;11.90;99.30;;;;;;4983590;28;113690;-66
2022/01/16 11:08:36;;;;;;;12.50;5.78;;;12.00;99.20;;;;;;4985362;28;112612;-62
2022/01/16 11:11:03;;;;;;;13.38;5.75;;;12.10;99.00;;;;;;4986728;28;112593;-67
2022/01/16 11:13:34;;;;;;;11.05;4.57;;;12.20;98.80;;;;;;4967251;28;112542;-65
2022/01/16 11:16:03;;;;;;;9.00;5.13;;;12.30;98.80;;;;;;4985636;28;114985;-63
2022/01/16 11:18:29;;;;;;;19.85;5.80;;;12.50;98.50;;;;;;4985209;28;112546;-60
2022/01/16 11:23:32;;;;;;;11.32;6.28;;;12.70;98.50;;;;;;4986433;28;112396;-64
2022/01/16 11:26:06;;;;;;;13.55;5.63;;;12.80;98.10;;;;;;4985376;28;114149;-64
2022/01/16 11:28:32;;;;;;;11.70;5.47;;;12.90;97.60;;;;;;4985576;28;112651;-59
2022/01/16 11:31:04;;;;;;;12.48;6.05;;;13.00;97.50;;;;;;4966967;28;112821;-65
2022/01/16 11:33:33;;;;;;;12.57;5.70;;;13.10;97.40;;;;;;4985616;28;112487;-64
2022/01/16 11:36:11;;;;;;;15.50;7.45;;;13.30;97.20;;;;;;4984689;28;114657;-63
2022/01/16 11:38:52;;;;;;;17.48;8.30;;;13.40;97.00;;;;;;4984046;28;114241;-63
2022/01/16 11:41:25;;;;;;;12.07;6.68;;;13.60;96.60;;;;;;4966804;28;112400;-65
2022/01/16 11:43:53;;;;;;;9.15;5.35;;;13.70;96.00;;;;;;4964030;28;112566;-65
2022/01/16 11:46:24;;;;;;;12.73;5.30;;;13.70;95.70;;;;;;4965531;28;113269;-64
2022/01/16 11:49:17;;;;;;;10.05;5.18;;;13.90;95.60;;;;;;4983675;28;113631;-67
2022/01/16 11:51:48;;;;;;;10.45;5.68;;;13.90;94.80;;;;;;4976877;28;112575;-65
2022/01/16 11:54:21;;;;;;;19.75;6.03;;;14.10;94.70;;;;;;4981933;28;112549;-64
2022/01/16 11:56:49;;;;;;;13.60;5.68;;;14.20;94.80;;;;;;4960560;28;116193;-64
2022/01/16 11:59:21;;;;;;;13.68;7.00;;;14.50;94.60;;;;;;4996361;28;113706;-63
2022/01/16 12:01:55;;;;;;;13.35;5.75;;;14.80;94.30;;;;;;4964900;28;112879;-63
2022/01/16 12:04:30;;;;;;;13.23;6.47;;;15.10;93.40;;;;;;4964793;28;112490;-64
2022/01/16 12:06:57;;;;;;;12.30;5.45;;;15.40;93.10;;;;;;4964562;28;114195;-63
2022/01/16 12:09:35;;;;;;;11.68;5.10;;;15.70;92.20;;;;;;4946803;28;116070;-62
2022/01/16 12:12:03;;;;;;;13.32;5.35;;;15.80;91.70;;;;;;4997159;28;112835;-64
2022/01/16 12:14:48;;;;;;;12.40;5.40;;;15.80;91.30;;;;;;5004558;28;112522;-58
2022/01/16 12:17:29;;;;;;;13.45;6.13;;;16.10;90.90;;;;;;5002664;28;113374;-63
2022/01/16 12:19:59;;;;;;;13.23;5.18;;;16.10;89.70;;;;;;5003615;28;113918;-66
2022/01/16 12:23:08;;;;;;;11.95;6.22;;;16.30;89.60;;;;;;4986076;28;112587;-64
2022/01/16 12:25:37;;;;;;;9.27;5.22;;;16.90;89.00;;;;;;5004951;28;112585;-65
2022/01/16 12:28:06;;;;;;;12.77;6.20;;;17.30;88.10;;;;;;4985411;28;114182;-63
2022/01/16 12:30:52;;;;;;;15.52;6.13;;;17.70;87.10;;;;;;4983537;28;113159;-63
2022/01/16 12:33:37;;;;;;;16.05;7.18;;;18.20;86.60;;;;;;4992400;28;112707;-62
2022/01/16 12:36:16;;;;;;;12.23;5.78;;;19.00;83.00;;;;;;4997946;28;112422;-65
2022/01/16 12:38:53;;;;;;;16.90;6.13;;;19.90;83.70;;;;;;4999620;28;114219;-63
2022/01/16 12:41:23;;;;;;;15.80;6.80;;;20.50;80.10;;;;;;4972893;28;115141;-64
2022/01/16 12:43:58;;;;;;;10.80;6.47;;;21.20;78.10;;;;;;4990612;28;112437;-64
2022/01/16 12:46:38;;;;;;;16.98;6.55;;;21.50;74.20;;;;;;4991836;28;112695;-63
2022/01/16 12:49:13;;;;;;;17.70;7.20;;;21.80;72.00;;;;;;4996517;28;113016;-65
2022/01/16 12:51:42;;;;;;;10.70;6.35;;;22.00;70.10;;;;;;4994046;28;112626;-63
2022/01/16 12:54:11;;;;;;;17.67;7.25;;;22.10;68.60;;;;;;4988024;28;112570;-64
2022/01/16 12:56:56;;;;;;;;;;;22.10;67.00;;;;;;4996521;28;114259;-64
2022/01/16 12:59:24;;;;;;;14.35;7.28;;;22.00;67.50;;;;;;4995721;28;114157;-61
2022/01/16 13:01:53;;;;;;;11.95;6.63;;;22.20;67.80;;;;;;4981867;28;112461;-63
2022/01/16 13:04:20;;;;;;;17.52;7.45;;;22.10;68.10;;;;;;4998623;28;112685;-65
2022/01/16 13:06:47;;;;;;;11.93;7.28;;;22.10;66.60;;;;;;4985205;28;112518;-65
2022/01/16 13:09:16;;;;;;;13.48;6.80;;;21.80;67.00;;;;;;4990640;28;115687;-66
2022/01/16 13:11:50;;;;;;;14.30;7.72;;;21.40;67.50;;;;;;4980644;28;113594;-67
2022/01/16 13:14:19;;;;;;;17.58;7.03;;;21.20;67.60;;;;;;4986744;28;112417;-61
2022/01/16 13:16:48;;;;;;;10.55;6.38;;;20.90;68.10;;;;;;4987004;28;112464;-63
2022/01/16 13:19:18;;;;;;;10.85;6.32;;;20.60;69.10;;;;;;4987066;28;114085;-66
2022/01/16 13:22:04;;;;;;;11.52;6.00;;;20.40;69.90;;;;;;4981955;28;112703;-60
2022/01/16 13:24:51;;;;;;;18.48;6.15;;;20.20;69.10;;;;;;4981493;28;113345;-63
2022/01/16 13:27:21;;;;;;;10.73;6.07;;;20.00;69.80;;;;;;4982315;28;112538;-61
2022/01/16 13:29:56;;;;;;;15.13;5.88;;;19.90;70.60;;;;;;5013096;22;113694;-63
2022/01/16 13:32:44;;;;;;;11.82;5.65;;;20.00;71.30;;;;;;4963064;28;112731;-67
2022/01/16 13:35:31;;;;;;;9.75;4.35;;;20.10;71.20;;;;;;4963250;28;112450;-71
2022/01/16 13:38:11;;;;;;;7.45;3.70;;;20.30;70.80;;;;;;4959557;22;113049;-61